sensor_id;sensor_type;location;lat;lon;timestamp;pressure;altitude;pressure_sealevel;temperature;humidity
4858;BME280;58975;51.978;8.472;2022-09-03T00:01:49;100153.75;;;16.37;68.68
4858;BME280;58975;51.978;8.472;2022-09-03T00:06:54;100158.63;;;16.34;69.28
4858;BME280;58975;51.978;8.472;2022-09-03T00:12:12;100152.25;;;16.27;69.95
4858;BME280;58975;51.978;8.472;2022-09-03T00:17:24;100155.25;;;16.32;69.03
4858;BME280;58975;51.978;8.472;2022-09-03T00:22:44;100145.97;;;16.02;72.26
4858;BME280;58975;51.978;8.472;2022-09-03T00:27:44;100148.09;;;15.82;75.23
4858;BME280;58975;51.978;8.472;2022-09-03T00:32:58;100146.50;;;15.55;79.62
4858;BME280;58975;51.978;8.472;2022-09-03T00:38:00;100144.03;;;15.36;82.33
4858;BME280;58975;51.978;8.472;2022-09-03T00:43:03;100143.94;;;15.20;86.69
4858;BME280;58975;51.978;8.472;2022-09-03T00:48:12;100143.00;;;14.60;99.17
4858;BME280;58975;51.978;8.472;2022-09-03T00:53:29;100138.50;;;14.25;100.00
4858;BME280;58975;51.978;8.472;2022-09-03T00:58:39;100135.88;;;13.98;100.00
4858;BME280;58975;51.978;8.472;2022-09-03T01:03:52;100129.84;;;13.68;100.00
4858;BME280;58975;51.978;8.472;2022-09-03T01:14:11;100134.31;;;13.50;100.00
4858;BME280;58975;51.978;8.472;2022-09-03T01:19:33;100125.91;;;13.45;100.00
4858;BME280;58975;51.978;8.472;2022-09-03T01:25:01;100135.66;;;13.37;100.00
4858;BME280;58975;51.978;8.472;2022-09-03T01:30:06;100139.47;;;13.34;100.00
4858;BME280;58975;51.978;8.472;2022-09-03T01:35:12;100141.72;;;13.29;100.00
4858;BME280;58975;51.978;8.472;2022-09-03T01:40:30;100138.69;;;13.24;100.00
4858;BME280;58975;51.978;8.472;2022-09-03T01:45:34;100137.16;;;13.12;100.00
4858;BME280;58975;51.978;8.472;2022-09-03T01:50:43;100130.16;;;12.92;100.00
4858;BME280;58975;51.978;8.472;2022-09-03T02:01:00;100140.59;;;12.75;100.00
4858;BME280;58975;51.978;8.472;2022-09-03T02:05:59;100128.09;;;12.76;100.00
4858;BME280;58975;51.978;8.472;2022-09-03T02:10:57;100130.75;;;12.76;100.00
4858;BME280;58975;51.978;8.472;2022-09-03T02:16:00;100129.66;;;12.69;100.00
4858;BME280;58975;51.978;8.472;2022-09-03T02:20:59;100135.59;;;12.53;100.00
4858;BME280;58975;51.978;8.472;2022-09-03T02:25:57;100138.53;;;12.41;100.00
4858;BME280;58975;51.978;8.472;2022-09-03T02:30:55;100132.75;;;12.36;100.00
4858;BME280;58975;51.978;8.472;2022-09-03T02:35:53;100130.50;;;12.31;100.00
4858;BME280;58975;51.978;8.472;2022-09-03T02:40:50;100129.97;;;12.18;100.00
4858;BME280;58975;51.978;8.472;2022-09-03T02:45:50;100129.13;;;12.17;100.00
4858;BME280;58975;51.978;8.472;2022-09-03T02:50:49;100125.63;;;12.07;100.00
4858;BME280;58975;51.978;8.472;2022-09-03T02:55:45;100131.09;;;12.06;100.00
4858;BME280;58975;51.978;8.472;2022-09-03T03:00:41;100120.53;;;12.04;100.00
4858;BME280;58975;51.978;8.472;2022-09-03T03:05:44;100121.09;;;11.98;100.00
4858;BME280;58975;51.978;8.472;2022-09-03T03:10:42;100116.19;;;11.94;100.00
4858;BME280;58975;51.978;8.472;2022-09-03T03:15:42;100113.66;;;12.02;100.00
4858;BME280;58975;51.978;8.472;2022-09-03T03:20:41;100105.94;;;12.08;100.00
4858;BME280;58975;51.978;8.472;2022-09-03T03:25:38;100103.28;;;11.99;100.00
4858;BME280;58975;51.978;8.472;2022-09-03T03:30:38;100109.44;;;12.09;100.00
4858;BME280;58975;51.978;8.472;2022-09-03T03:35:35;100105.09;;;12.08;100.00
4858;BME280;58975;51.978;8.472;2022-09-03T03:40:32;100105.81;;;12.10;100.00
4858;BME280;58975;51.978;8.472;2022-09-03T03:45:29;100114.63;;;12.01;100.00
4858;BME280;58975;51.978;8.472;2022-09-03T03:50:26;100114.78;;;11.99;100.00
4858;BME280;58975;51.978;8.472;2022-09-03T03:55:23;100115.19;;;11.85;100.00
4858;BME280;58975;51.978;8.472;2022-09-03T04:00:22;100117.00;;;11.84;100.00
4858;BME280;58975;51.978;8.472;2022-09-03T04:05:19;100109.44;;;11.90;100.00
4858;BME280;58975;51.978;8.472;2022-09-03T04:10:19;100111.94;;;11.81;100.00
4858;BME280;58975;51.978;8.472;2022-09-03T04:15:15;100107.88;;;11.77;100.00
4858;BME280;58975;51.978;8.472;2022-09-03T04:20:12;100093.84;;;11.75;100.00
4858;BME280;58975;51.978;8.472;2022-09-03T04:25:08;100093.84;;;11.75;100.00
4858;BME280;58975;51.978;8.472;2022-09-03T04:30:05;100090.53;;;11.62;100.00
4858;BME280;58975;51.978;8.472;2022-09-03T04:35:02;100087.72;;;11.54;100.00
4858;BME280;58975;51.978;8.472;2022-09-03T04:39:59;100094.75;;;11.55;100.00
4858;BME280;58975;51.978;8.472;2022-09-03T04:44:55;100094.19;;;11.61;100.00
4858;BME280;58975;51.978;8.472;2022-09-03T04:49:52;100096.44;;;11.66;100.00
4858;BME280;58975;51.978;8.472;2022-09-03T04:54:50;100090.25;;;11.65;100.00
4858;BME280;58975;51.978;8.472;2022-09-03T04:59:46;100097.28;;;11.66;100.00
4858;BME280;58975;51.978;8.472;2022-09-03T05:04:42;100091.88;;;11.77;100.00
4858;BME280;58975;51.978;8.472;2022-09-03T05:09:39;100104.50;;;11.85;100.00
4858;BME280;58975;51.978;8.472;2022-09-03T05:14:35;100091.31;;;11.83;100.00
4858;BME280;58975;51.978;8.472;2022-09-03T05:19:32;100086.81;;;11.94;100.00
4858;BME280;58975;51.978;8.472;2022-09-03T05:24:29;100085.00;;;12.04;100.00
4858;BME280;58975;51.978;8.472;2022-09-03T05:29:25;100085.84;;;12.33;100.00
4858;BME280;58975;51.978;8.472;2022-09-03T05:34:22;100089.44;;;13.07;100.00
4858;BME280;58975;51.978;8.472;2022-09-03T05:39:19;100098.91;;;13.66;100.00
4858;BME280;58975;51.978;8.472;2022-09-03T05:44:15;100100.94;;;13.99;100.00
4858;BME280;58975;51.978;8.472;2022-09-03T05:49:11;100093.59;;;14.37;100.00
4858;BME280;58975;51.978;8.472;2022-09-03T05:54:09;100097.13;;;14.37;100.00
4858;BME280;58975;51.978;8.472;2022-09-03T05:59:07;100101.78;;;14.35;100.00
4858;BME280;58975;51.978;8.472;2022-09-03T06:04:10;100101.13;;;14.23;100.00
4858;BME280;58975;51.978;8.472;2022-09-03T06:09:08;100104.91;;;14.31;100.00
4858;BME280;58975;51.978;8.472;2022-09-03T06:14:07;100105.69;;;14.41;100.00
4858;BME280;58975;51.978;8.472;2022-09-03T06:19:04;100103.91;;;14.49;100.00
4858;BME280;58975;51.978;8.472;2022-09-03T06:24:04;100101.44;;;14.56;100.00
4858;BME280;58975;51.978;8.472;2022-09-03T06:29:01;100110.66;;;14.79;100.00
4858;BME280;58975;51.978;8.472;2022-09-03T06:33:57;100108.66;;;15.07;100.00
4858;BME280;58975;51.978;8.472;2022-09-03T06:38:59;100112.28;;;14.98;100.00
4858;BME280;58975;51.978;8.472;2022-09-03T06:43:57;100110.50;;;15.06;100.00
4858;BME280;58975;51.978;8.472;2022-09-03T06:48:58;100110.44;;;15.24;100.00
4858;BME280;58975;51.978;8.472;2022-09-03T06:54:02;100122.19;;;15.65;100.00
4858;BME280;58975;51.978;8.472;2022-09-03T06:59:04;100118.06;;;15.79;100.00
4858;BME280;58975;51.978;8.472;2022-09-03T07:04:02;100120.44;;;15.98;100.00
4858;BME280;58975;51.978;8.472;2022-09-03T07:08:59;100123.34;;;16.45;100.00
4858;BME280;58975;51.978;8.472;2022-09-03T07:13:57;100128.06;;;16.83;100.00
4858;BME280;58975;51.978;8.472;2022-09-03T07:18:54;100125.09;;;17.33;100.00
4858;BME280;58975;51.978;8.472;2022-09-03T07:23:52;100118.47;;;17.91;99.60
4858;BME280;58975;51.978;8.472;2022-09-03T07:28:49;100117.56;;;18.29;88.18
4858;BME280;58975;51.978;8.472;2022-09-03T07:33:46;100118.38;;;18.90;88.77
4858;BME280;58975;51.978;8.472;2022-09-03T07:38:43;100113.22;;;19.32;80.71
4858;BME280;58975;51.978;8.472;2022-09-03T07:43:41;100129.06;;;19.79;83.46
4858;BME280;58975;51.978;8.472;2022-09-03T07:48:42;100125.63;;;20.07;73.13
4858;BME280;58975;51.978;8.472;2022-09-03T07:53:39;100122.47;;;20.24;74.14
4858;BME280;58975;51.978;8.472;2022-09-03T07:58:36;100121.63;;;20.24;67.46
4858;BME280;58975;51.978;8.472;2022-09-03T08:03:37;100121.84;;;20.22;66.21
4858;BME280;58975;51.978;8.472;2022-09-03T08:08:35;100127.59;;;20.34;65.96
4858;BME280;58975;51.978;8.472;2022-09-03T08:13:32;100124.84;;;20.49;63.94
4858;BME280;58975;51.978;8.472;2022-09-03T08:18:29;100127.88;;;20.88;64.34
4858;BME280;58975;51.978;8.472;2022-09-03T08:23:27;100118.34;;;21.20;63.64
4858;BME280;58975;51.978;8.472;2022-09-03T08:28:24;100133.34;;;21.22;61.27
4858;BME280;58975;51.978;8.472;2022-09-03T08:33:21;100132.72;;;21.20;59.18
4858;BME280;58975;51.978;8.472;2022-09-03T08:38:33;100134.81;;;21.25;58.91
4858;BME280;58975;51.978;8.472;2022-09-03T08:43:36;100137.47;;;21.53;60.56
4858;BME280;58975;51.978;8.472;2022-09-03T08:48:36;100136.97;;;21.77;57.37
4858;BME280;58975;51.978;8.472;2022-09-03T08:53:45;100136.78;;;21.79;57.83
4858;BME280;58975;51.978;8.472;2022-09-03T08:58:44;100124.19;;;22.05;57.74
4858;BME280;58975;51.978;8.472;2022-09-03T09:09:27;100130.75;;;22.44;55.07
4858;BME280;58975;51.978;8.472;2022-09-03T09:19:45;100114.44;;;22.17;55.77
4858;BME280;58975;51.978;8.472;2022-09-03T09:24:46;100115.91;;;22.33;54.41
4858;BME280;58975;51.978;8.472;2022-09-03T09:29:47;100108.41;;;22.55;54.16
4858;BME280;58975;51.978;8.472;2022-09-03T09:34:44;100106.53;;;22.55;55.08
4858;BME280;58975;51.978;8.472;2022-09-03T09:39:55;100108.00;;;22.97;52.43
4858;BME280;58975;51.978;8.472;2022-09-03T09:44:52;100101.53;;;22.98;52.44
4858;BME280;58975;51.978;8.472;2022-09-03T09:49:56;100098.38;;;23.28;52.05
4858;BME280;58975;51.978;8.472;2022-09-03T09:55:05;100096.75;;;23.00;51.14
4858;BME280;58975;51.978;8.472;2022-09-03T10:00:12;100083.97;;;23.21;51.58
4858;BME280;58975;51.978;8.472;2022-09-03T10:05:22;100087.63;;;23.59;49.52
4858;BME280;58975;51.978;8.472;2022-09-03T10:10:20;100080.53;;;23.58;49.87
4858;BME280;58975;51.978;8.472;2022-09-03T10:15:28;100076.53;;;23.67;49.36
4858;BME280;58975;51.978;8.472;2022-09-03T10:31:16;100077.97;;;24.08;47.71
4858;BME280;58975;51.978;8.472;2022-09-03T10:36:23;100068.19;;;24.38;47.68
4858;BME280;58975;51.978;8.472;2022-09-03T10:41:42;100066.41;;;24.50;46.13
4858;BME280;58975;51.978;8.472;2022-09-03T10:52:02;100069.19;;;24.68;46.57
4858;BME280;58975;51.978;8.472;2022-09-03T10:57:21;100062.03;;;24.11;46.87
4858;BME280;58975;51.978;8.472;2022-09-03T11:02:32;100056.66;;;24.36;47.48
4858;BME280;58975;51.978;8.472;2022-09-03T11:07:40;100064.38;;;24.39;46.85
4858;BME280;58975;51.978;8.472;2022-09-03T11:12:55;100061.84;;;24.69;45.44
4858;BME280;58975;51.978;8.472;2022-09-03T11:23:06;100055.50;;;24.75;44.50
4858;BME280;58975;51.978;8.472;2022-09-03T11:33:32;100062.28;;;24.10;46.35
4858;BME280;58975;51.978;8.472;2022-09-03T11:38:35;100057.44;;;24.18;44.86
4858;BME280;58975;51.978;8.472;2022-09-03T11:43:33;100047.94;;;24.52;45.62
4858;BME280;58975;51.978;8.472;2022-09-03T11:48:44;100043.22;;;24.90;44.19
4858;BME280;58975;51.978;8.472;2022-09-03T11:53:40;100050.19;;;24.37;45.44
4858;BME280;58975;51.978;8.472;2022-09-03T11:58:39;100048.41;;;24.49;46.00
4858;BME280;58975;51.978;8.472;2022-09-03T12:03:42;100036.91;;;25.15;44.11
4858;BME280;58975;51.978;8.472;2022-09-03T12:19:18;100041.53;;;26.40;41.91
4858;BME280;58975;51.978;8.472;2022-09-03T12:24:18;100030.81;;;25.97;41.77
4858;BME280;58975;51.978;8.472;2022-09-03T12:29:24;100029.53;;;26.11;42.65
4858;BME280;58975;51.978;8.472;2022-09-03T12:34:23;100032.09;;;25.65;42.25
4858;BME280;58975;51.978;8.472;2022-09-03T12:39:23;100030.69;;;25.44;42.71
4858;BME280;58975;51.978;8.472;2022-09-03T12:44:40;100031.44;;;25.51;41.91
4858;BME280;58975;51.978;8.472;2022-09-03T12:49:48;100028.88;;;25.56;42.55
4858;BME280;58975;51.978;8.472;2022-09-03T12:54:53;100019.50;;;25.52;43.22
4858;BME280;58975;51.978;8.472;2022-09-03T12:59:54;100024.03;;;25.22;42.90
4858;BME280;58975;51.978;8.472;2022-09-03T13:04:51;100014.44;;;25.01;43.12
4858;BME280;58975;51.978;8.472;2022-09-03T13:09:49;100014.72;;;24.93;43.49
4858;BME280;58975;51.978;8.472;2022-09-03T13:14:46;100015.22;;;25.02;43.91
4858;BME280;58975;51.978;8.472;2022-09-03T13:30:22;100020.84;;;24.88;43.31
4858;BME280;58975;51.978;8.472;2022-09-03T13:35:27;100023.16;;;24.60;43.46
4858;BME280;58975;51.978;8.472;2022-09-03T13:41:11;100022.50;;;24.40;42.77
4858;BME280;58975;51.978;8.472;2022-09-03T13:46:29;100014.59;;;24.38;43.10
4858;BME280;58975;51.978;8.472;2022-09-03T13:51:37;100013.56;;;24.33;43.67
4858;BME280;58975;51.978;8.472;2022-09-03T13:56:59;100014.06;;;24.48;43.87
4858;BME280;58975;51.978;8.472;2022-09-03T14:02:17;100007.69;;;24.61;44.01
4858;BME280;58975;51.978;8.472;2022-09-03T14:07:27;100008.22;;;24.69;44.24
4858;BME280;58975;51.978;8.472;2022-09-03T14:17:47;100003.09;;;24.55;43.72
4858;BME280;58975;51.978;8.472;2022-09-03T14:28:43;100003.97;;;24.98;43.67
4858;BME280;58975;51.978;8.472;2022-09-03T14:33:54;100004.88;;;25.10;42.40
4858;BME280;58975;51.978;8.472;2022-09-03T14:39:15;100000.41;;;25.52;40.95
4858;BME280;58975;51.978;8.472;2022-09-03T15:11:30;100014.78;;;25.23;41.07
4858;BME280;58975;51.978;8.472;2022-09-03T15:16:36;100000.53;;;25.39;41.08
4858;BME280;58975;51.978;8.472;2022-09-03T15:22:04;100022.34;;;25.39;41.48
4858;BME280;58975;51.978;8.472;2022-09-03T15:27:43;100016.53;;;25.17;41.45
4858;BME280;58975;51.978;8.472;2022-09-03T15:37:51;100020.25;;;24.80;44.21
4858;BME280;58975;51.978;8.472;2022-09-03T15:42:54;100021.31;;;24.79;43.23
4858;BME280;58975;51.978;8.472;2022-09-03T15:48:08;100015.97;;;24.90;42.46
4858;BME280;58975;51.978;8.472;2022-09-03T15:53:29;100024.97;;;25.52;42.04
4858;BME280;58975;51.978;8.472;2022-09-03T15:58:36;100024.34;;;25.80;41.56
4858;BME280;58975;51.978;8.472;2022-09-03T16:08:58;100034.78;;;24.49;41.89
4858;BME280;58975;51.978;8.472;2022-09-03T16:24:23;100024.31;;;25.14;41.17
4858;BME280;58975;51.978;8.472;2022-09-03T16:29:26;100031.53;;;25.26;41.61
4858;BME280;58975;51.978;8.472;2022-09-03T16:34:28;100028.09;;;25.49;41.12
4858;BME280;58975;51.978;8.472;2022-09-03T16:44:53;100031.69;;;27.72;37.36
4858;BME280;58975;51.978;8.472;2022-09-03T16:50:30;100030.44;;;30.80;33.29
4858;BME280;58975;51.978;8.472;2022-09-03T16:55:54;100025.03;;;31.42;30.90
4858;BME280;58975;51.978;8.472;2022-09-03T17:06:26;100042.06;;;27.70;34.02
4858;BME280;58975;51.978;8.472;2022-09-03T17:11:52;100051.16;;;25.17;39.35
4858;BME280;58975;51.978;8.472;2022-09-03T17:22:32;100050.50;;;27.17;36.58
4858;BME280;58975;51.978;8.472;2022-09-03T17:33:10;100048.19;;;25.55;38.98
4858;BME280;58975;51.978;8.472;2022-09-03T17:44:17;100059.19;;;22.71;44.82
4858;BME280;58975;51.978;8.472;2022-09-03T17:49:26;100074.16;;;22.14;46.32
4858;BME280;58975;51.978;8.472;2022-09-03T18:04:48;100088.84;;;21.38;49.17
4858;BME280;58975;51.978;8.472;2022-09-03T18:10:17;100101.72;;;21.30;49.45
4858;BME280;58975;51.978;8.472;2022-09-03T18:15:20;100106.94;;;21.03;51.06
4858;BME280;58975;51.978;8.472;2022-09-03T18:20:21;100110.25;;;20.99;51.34
4858;BME280;58975;51.978;8.472;2022-09-03T18:25:38;100120.19;;;20.92;51.51
4858;BME280;58975;51.978;8.472;2022-09-03T18:30:54;100126.41;;;20.86;51.84
4858;BME280;58975;51.978;8.472;2022-09-03T18:36:11;100130.41;;;20.68;52.97
4858;BME280;58975;51.978;8.472;2022-09-03T18:46:55;100145.44;;;20.28;56.12
4858;BME280;58975;51.978;8.472;2022-09-03T19:04:08;100136.22;;;19.72;59.36
4858;BME280;58975;51.978;8.472;2022-09-03T19:09:44;100140.25;;;19.47;61.87
4858;BME280;58975;51.978;8.472;2022-09-03T19:15:12;100151.28;;;19.23;65.87
4858;BME280;58975;51.978;8.472;2022-09-03T19:20:30;100159.63;;;18.99;69.26
4858;BME280;58975;51.978;8.472;2022-09-03T19:25:46;100164.91;;;18.77;71.52
4858;BME280;58975;51.978;8.472;2022-09-03T19:42:21;100165.81;;;18.16;87.64
4858;BME280;58975;51.978;8.472;2022-09-03T19:47:47;100175.34;;;17.96;92.76
4858;BME280;58975;51.978;8.472;2022-09-03T19:53:14;100174.81;;;17.70;97.64
4858;BME280;58975;51.978;8.472;2022-09-03T19:58:32;100187.97;;;17.48;100.00
4858;BME280;58975;51.978;8.472;2022-09-03T20:03:49;100186.03;;;17.18;100.00
4858;BME280;58975;51.978;8.472;2022-09-03T20:09:08;100190.41;;;16.95;100.00
4858;BME280;58975;51.978;8.472;2022-09-03T20:14:23;100187.06;;;16.77;100.00
4858;BME280;58975;51.978;8.472;2022-09-03T20:19:42;100187.38;;;16.49;100.00
4858;BME280;58975;51.978;8.472;2022-09-03T20:30:06;100208.16;;;16.39;100.00
4858;BME280;58975;51.978;8.472;2022-09-03T20:35:26;100211.53;;;16.33;100.00
4858;BME280;58975;51.978;8.472;2022-09-03T20:40:44;100227.78;;;16.24;100.00
4858;BME280;58975;51.978;8.472;2022-09-03T20:45:57;100223.91;;;16.10;100.00
4858;BME280;58975;51.978;8.472;2022-09-03T20:51:10;100217.06;;;15.82;100.00
4858;BME280;58975;51.978;8.472;2022-09-03T20:56:24;100215.28;;;15.65;100.00
4858;BME280;58975;51.978;8.472;2022-09-03T21:01:50;100218.53;;;15.68;100.00
4858;BME280;58975;51.978;8.472;2022-09-03T21:06:59;100225.38;;;15.63;100.00
4858;BME280;58975;51.978;8.472;2022-09-03T21:12:27;100225.31;;;15.54;100.00
4858;BME280;58975;51.978;8.472;2022-09-03T21:28:04;100232.72;;;16.52;100.00
4858;BME280;58975;51.978;8.472;2022-09-03T21:33:06;100233.66;;;16.85;100.00
4858;BME280;58975;51.978;8.472;2022-09-03T21:38:11;100238.00;;;16.94;100.00
4858;BME280;58975;51.978;8.472;2022-09-03T21:43:16;100235.31;;;16.94;100.00
4858;BME280;58975;51.978;8.472;2022-09-03T21:48:34;100236.31;;;17.10;100.00
4858;BME280;58975;51.978;8.472;2022-09-03T22:04:37;100244.72;;;16.74;100.00
4858;BME280;58975;51.978;8.472;2022-09-03T22:09:47;100244.38;;;16.69;100.00
4858;BME280;58975;51.978;8.472;2022-09-03T22:14:48;100243.47;;;16.52;100.00
4858;BME280;58975;51.978;8.472;2022-09-03T22:19:46;100244.16;;;16.46;100.00
4858;BME280;58975;51.978;8.472;2022-09-03T22:24:49;100255.72;;;16.31;100.00
4858;BME280;58975;51.978;8.472;2022-09-03T22:29:53;100256.19;;;16.26;100.00
4858;BME280;58975;51.978;8.472;2022-09-03T22:35:02;100257.50;;;16.14;100.00
4858;BME280;58975;51.978;8.472;2022-09-03T22:40:05;100245.72;;;16.07;100.00
4858;BME280;58975;51.978;8.472;2022-09-03T22:45:17;100251.81;;;16.25;100.00
4858;BME280;58975;51.978;8.472;2022-09-03T22:50:21;100250.47;;;16.29;100.00
4858;BME280;58975;51.978;8.472;2022-09-03T22:55:23;100258.38;;;16.39;100.00
4858;BME280;58975;51.978;8.472;2022-09-03T23:00:20;100274.38;;;16.40;100.00
4858;BME280;58975;51.978;8.472;2022-09-03T23:05:29;100268.84;;;16.42;100.00
4858;BME280;58975;51.978;8.472;2022-09-03T23:10:29;100271.66;;;16.40;100.00
4858;BME280;58975;51.978;8.472;2022-09-03T23:15:28;100276.03;;;16.33;100.00
4858;BME280;58975;51.978;8.472;2022-09-03T23:20:27;100276.63;;;16.19;100.00
4858;BME280;58975;51.978;8.472;2022-09-03T23:25:36;100279.06;;;15.96;100.00
4858;BME280;58975;51.978;8.472;2022-09-03T23:30:37;100282.78;;;15.70;100.00
4858;BME280;58975;51.978;8.472;2022-09-03T23:35:47;100284.53;;;15.35;100.00
4858;BME280;58975;51.978;8.472;2022-09-03T23:40:47;100275.38;;;15.20;100.00
4858;BME280;58975;51.978;8.472;2022-09-03T23:46:08;100279.84;;;15.11;100.00
4858;BME280;58975;51.978;8.472;2022-09-03T23:51:19;100282.59;;;15.02;100.00
